NO-0053 weather

Molde Heliport, Hospital
Molde, Møre og Romsdal, Norway

Public forecast

Using degrees Celsius for public forecast. Weather courtesy of forecast.io.

METAR (pilot weather report)

Closest report is Molde Airport, 3.5 nm (6.5 km) E. Retrieved 2019/07/18 01:20 UTC (20 minutes ago):

ENML 180120Z AUTO 02006KT 9999NDV OVC180/// 13/11 Q1009

TAF (pilot weather forecast)

Forecast is more than 12 hours old.

Closest forecast is Molde Airport, 3.5 nm (6.5 km) E. Retrieved 2011/03/08 08:45 UTC (8 years ago):

TAF TAF ESDF 0808 FCNO33 ENMI 080800 RRC TAF ENML 080800Z 0809/0818 21015KT 9999 FEW030 BKN050 TEMPO 0809/0818 21022G35KT BECMG 0815/0818 21022G35KT TEMPO 0815/0818 4000 RADZ BKN012